createdAt,value
2023-03-22T00:01:28.774Z,65.59
2023-03-22T00:03:56.830Z,65.11
2023-03-22T00:06:25.764Z,65.05
2023-03-22T00:08:55.590Z,64.80
2023-03-22T00:11:25.928Z,65.03
2023-03-22T00:13:55.006Z,66.02
2023-03-22T00:16:23.468Z,65.68
2023-03-22T00:18:51.943Z,66.16
2023-03-22T00:21:20.167Z,66.14
2023-03-22T00:23:48.295Z,66.13
2023-03-22T00:26:17.597Z,65.93
2023-03-22T00:28:45.670Z,65.66
2023-03-22T00:31:13.693Z,65.50
2023-03-22T00:33:41.709Z,65.66
2023-03-22T00:36:12.196Z,65.65
2023-03-22T00:38:44.460Z,66.69
2023-03-22T00:41:14.807Z,66.58
2023-03-22T00:43:44.629Z,66.86
2023-03-22T00:46:13.817Z,66.97
2023-03-22T00:48:41.889Z,67.70
2023-03-22T00:51:10.131Z,67.52
2023-03-22T00:53:41.108Z,67.20
2023-03-22T00:56:14.065Z,67.75
2023-03-22T00:58:44.136Z,67.86
2023-03-22T01:01:14.117Z,67.51
2023-03-22T01:03:43.843Z,67.37
2023-03-22T01:06:12.619Z,67.61
2023-03-22T01:08:40.578Z,67.62
2023-03-22T01:11:09.312Z,68.05
2023-03-22T01:13:38.531Z,67.82
2023-03-22T01:16:09.686Z,67.96
2023-03-22T01:18:38.078Z,67.37
2023-03-22T01:21:07.062Z,67.21
2023-03-22T01:23:35.627Z,67.06
2023-03-22T01:26:03.965Z,67.67
2023-03-22T01:28:31.969Z,67.38
2023-03-22T01:31:03.238Z,67.73
2023-03-22T01:33:32.686Z,67.73
2023-03-22T01:36:00.713Z,68.11
2023-03-22T01:38:28.852Z,68.29
2023-03-22T01:40:57.262Z,68.59
2023-03-22T01:43:25.521Z,68.28
2023-03-22T01:45:54.345Z,68.75
2023-03-22T01:48:27.451Z,68.28
2023-03-22T01:51:09.021Z,68.27
2023-03-22T01:53:41.101Z,68.31
2023-03-22T01:56:10.918Z,68.59
2023-03-22T01:58:40.741Z,68.57
2023-03-22T02:01:11.119Z,69.18
2023-03-22T02:03:48.998Z,71.42
2023-03-22T02:06:18.947Z,71.93
2023-03-22T02:08:47.059Z,70.82
2023-03-22T02:11:17.906Z,71.43
2023-03-22T02:14:06.527Z,71.19
2023-03-22T02:16:44.651Z,70.06
2023-03-22T02:19:54.793Z,70.26
2023-03-22T02:22:53.473Z,68.69
2023-03-22T02:25:56.766Z,68.63
2023-03-22T02:28:41.079Z,68.47
2023-03-22T02:31:24.796Z,68.14
2023-03-22T02:34:28.752Z,67.95
2023-03-22T02:37:18.818Z,67.75
2023-03-22T02:39:54.144Z,68.16
2023-03-22T02:42:37.077Z,68.29
2023-03-22T02:45:12.360Z,67.87
2023-03-22T02:47:43.556Z,67.15
2023-03-22T02:50:17.411Z,67.13
2023-03-22T02:52:51.138Z,67.26
2023-03-22T02:55:25.280Z,67.29
2023-03-22T02:57:57.553Z,67.58
2023-03-22T03:00:27.206Z,67.72
2023-03-22T03:03:00.116Z,68.31
2023-03-22T03:05:31.881Z,68.27
2023-03-22T03:08:03.808Z,67.96
2023-03-22T03:10:34.484Z,68.29
2023-03-22T03:13:02.630Z,68.27
2023-03-22T03:15:31.156Z,67.85
2023-03-22T03:18:18.566Z,67.84
2023-03-22T03:21:00.349Z,67.93
2023-03-22T03:23:39.181Z,67.78
2023-03-22T03:26:17.499Z,67.70
2023-03-22T03:28:52.926Z,68.36
2023-03-22T03:31:32.048Z,67.66
2023-03-22T03:34:08.941Z,67.60
2023-03-22T03:36:41.036Z,67.92
2023-03-22T03:39:13.496Z,67.44
2023-03-22T03:41:46.215Z,68.01
2023-03-22T03:44:15.556Z,67.48
2023-03-22T03:46:45.421Z,69.03
2023-03-22T03:49:15.390Z,68.70
2023-03-22T03:51:49.441Z,68.62
2023-03-22T03:54:17.792Z,68.98
2023-03-22T03:56:48.594Z,71.12
2023-03-22T03:59:17.040Z,70.05
2023-03-22T04:01:50.345Z,69.69
2023-03-22T04:04:26.438Z,68.89
2023-03-22T04:06:56.844Z,68.98
2023-03-22T04:09:26.980Z,68.54
2023-03-22T04:11:57.198Z,68.45
2023-03-22T04:14:26.284Z,68.08
2023-03-22T04:16:55.305Z,68.85
2023-03-22T04:19:24.083Z,68.54
2023-03-22T04:21:53.236Z,68.14
2023-03-22T04:24:21.611Z,69.69
2023-03-22T04:26:49.767Z,71.00
2023-03-22T04:29:19.325Z,71.38
2023-03-22T04:31:47.308Z,71.01
2023-03-22T04:34:15.255Z,70.38
2023-03-22T04:36:45.249Z,69.58
2023-03-22T04:39:13.944Z,69.33
2023-03-22T04:41:41.939Z,69.56
2023-03-22T04:44:09.932Z,69.24
2023-03-22T04:46:39.634Z,69.58
2023-03-22T04:49:07.969Z,69.39
2023-03-22T04:51:35.989Z,68.65
2023-03-22T04:54:04.024Z,69.06
2023-03-22T04:56:31.962Z,68.21
2023-03-22T04:59:00.132Z,68.22
2023-03-22T05:01:28.304Z,68.55
2023-03-22T05:03:57.630Z,68.90
2023-03-22T05:06:25.580Z,68.47
2023-03-22T05:08:53.638Z,67.95
2023-03-22T05:11:22.027Z,67.97
2023-03-22T05:13:50.009Z,67.54
2023-03-22T05:16:18.013Z,68.14
2023-03-22T05:18:45.991Z,67.62
2023-03-22T05:21:16.926Z,67.64
2023-03-22T05:23:46.273Z,67.24
2023-03-22T05:26:15.841Z,67.16
2023-03-22T05:28:44.689Z,67.99
2023-03-22T05:31:14.841Z,67.53
2023-03-22T05:33:42.942Z,66.55
2023-03-22T05:36:12.412Z,66.60
2023-03-22T05:38:41.808Z,67.35
2023-03-22T05:41:10.652Z,66.69
2023-03-22T05:43:38.890Z,68.08
2023-03-22T05:46:07.873Z,67.70
2023-03-22T05:48:36.056Z,67.68
2023-03-22T05:51:06.676Z,67.38
2023-03-22T05:53:34.615Z,67.23
2023-03-22T05:56:04.330Z,67.59
2023-03-22T05:58:33.707Z,67.01
2023-03-22T06:01:07.437Z,67.03
2023-03-22T06:03:35.575Z,66.55
2023-03-22T06:06:06.786Z,66.99
2023-03-22T06:08:35.870Z,66.88
2023-03-22T06:11:06.625Z,67.13
2023-03-22T06:13:34.686Z,66.50
2023-03-22T06:16:03.647Z,67.19
2023-03-22T06:18:33.049Z,66.06
2023-03-22T06:21:01.332Z,65.33
2023-03-22T06:23:29.586Z,65.49
2023-03-22T06:25:57.768Z,66.13
2023-03-22T06:28:29.838Z,66.06
2023-03-22T06:30:58.111Z,66.30
2023-03-22T06:33:26.159Z,66.44
2023-03-22T06:35:54.155Z,66.17
2023-03-22T06:38:22.103Z,66.30
2023-03-22T06:40:50.024Z,65.95
2023-03-22T06:43:18.019Z,65.49
2023-03-22T06:45:49.195Z,65.89
2023-03-22T06:48:17.326Z,65.18
2023-03-22T06:50:48.339Z,65.92
2023-03-22T06:53:16.298Z,65.14
2023-03-22T06:55:44.273Z,65.74
2023-03-22T06:58:12.462Z,65.51
2023-03-22T07:00:40.676Z,65.27
2023-03-22T07:03:13.170Z,64.48
2023-03-22T07:05:41.143Z,63.80
2023-03-22T07:08:09.246Z,63.82
2023-03-22T07:10:37.829Z,63.37
2023-03-22T07:13:06.531Z,62.78
2023-03-22T07:15:35.213Z,62.33
2023-03-22T07:18:03.895Z,62.99
2023-03-22T07:20:36.918Z,61.93
2023-03-22T07:23:05.266Z,60.87
2023-03-22T07:25:33.273Z,61.24
2023-03-22T07:28:01.427Z,60.48
2023-03-22T07:30:29.566Z,60.09
2023-03-22T07:32:57.508Z,59.53
2023-03-22T07:35:26.968Z,57.52
2023-03-22T07:37:56.533Z,55.53
2023-03-22T07:40:24.917Z,54.49
2023-03-22T07:42:55.423Z,51.60
2023-03-22T07:45:24.504Z,50.96
2023-03-22T07:47:53.009Z,51.05
2023-03-22T07:50:21.380Z,50.24
2023-03-22T07:52:49.341Z,50.76
2023-03-22T07:55:18.768Z,50.02
2023-03-22T07:57:46.841Z,50.70
2023-03-22T08:00:15.705Z,50.85
2023-03-22T08:02:46.026Z,50.32
2023-03-22T08:05:14.127Z,50.69
2023-03-22T08:07:44.714Z,49.88
2023-03-22T08:10:16.044Z,49.99
2023-03-22T08:12:45.550Z,50.45
2023-03-22T08:15:13.528Z,50.20
2023-03-22T08:17:41.486Z,49.29
2023-03-22T08:20:10.747Z,47.42
2023-03-22T08:22:38.660Z,47.91
2023-03-22T08:25:07.384Z,46.68
2023-03-22T08:27:35.471Z,46.93
2023-03-22T08:30:05.949Z,47.24
2023-03-22T08:32:35.101Z,46.46
2023-03-22T08:35:03.160Z,47.15
2023-03-22T08:37:31.236Z,46.79
2023-03-22T08:39:59.679Z,45.53
2023-03-22T08:42:27.702Z,46.64
2023-03-22T08:44:55.764Z,45.21
2023-03-22T08:47:25.101Z,45.86
2023-03-22T08:49:53.072Z,44.65
2023-03-22T08:52:21.101Z,43.50
2023-03-22T08:54:49.222Z,42.62
2023-03-22T08:57:17.212Z,42.03
2023-03-22T08:59:45.357Z,41.28
2023-03-22T09:02:13.468Z,39.55
2023-03-22T09:04:42.891Z,40.48
2023-03-22T09:07:11.125Z,39.88
2023-03-22T09:09:39.215Z,39.62
2023-03-22T09:12:07.659Z,39.81
2023-03-22T09:14:35.756Z,38.59
2023-03-22T09:17:03.936Z,38.09
2023-03-22T09:19:32.555Z,38.18
2023-03-22T09:22:02.141Z,38.23
2023-03-22T09:24:30.074Z,38.38
2023-03-22T09:26:59.213Z,38.15
2023-03-22T09:29:27.197Z,37.28
2023-03-22T09:31:55.171Z,38.13
2023-03-22T09:34:23.321Z,38.44
2023-03-22T09:36:55.767Z,36.39
2023-03-22T09:39:28.843Z,36.11
2023-03-22T09:42:00.671Z,34.53
2023-03-22T09:44:33.468Z,36.00
2023-03-22T09:47:05.370Z,34.34
2023-03-22T09:49:52.507Z,35.39
2023-03-22T09:52:21.682Z,33.29
2023-03-22T09:54:53.107Z,32.99
2023-03-22T09:57:28.604Z,33.13
2023-03-22T10:00:08.953Z,33.73
2023-03-22T10:02:48.082Z,31.36
2023-03-22T10:05:26.133Z,32.00
2023-03-22T10:08:16.605Z,31.28
2023-03-22T10:10:52.849Z,30.72
2023-03-22T10:13:27.212Z,29.75
2023-03-22T10:15:59.186Z,29.14
2023-03-22T10:18:31.373Z,30.55
2023-03-22T10:21:02.699Z,30.69
2023-03-22T10:23:36.098Z,28.85
2023-03-22T10:26:07.680Z,28.57
2023-03-22T10:28:40.748Z,28.28
2023-03-22T10:31:17.600Z,27.12
2023-03-22T14:01:29.870Z,28.37
2023-03-22T14:04:03.480Z,28.40
2023-03-22T14:06:33.866Z,28.85
2023-03-22T14:09:10.644Z,29.10
2023-03-22T14:11:44.376Z,29.42
2023-03-22T14:14:16.276Z,29.53
2023-03-22T14:16:49.981Z,29.30
2023-03-22T14:19:21.466Z,29.20
